Time;durP1;ratioP1;P1;durP2;ratioP2;P2;SDS_P1;SDS_P2;PMS_P1;PMS_P2;Temp;Humidity;BMP_temperature;BMP_pressure;BME280_temperature;BME280_humidity;BME280_pressure;Samples;Min_cycle;Max_cycle;Signal;HPM_P1;HPM_P2
2022/10/16 00:01:15;;;;;;;0.90;0.77;;;17.20;99.90;;;;;;5035419;28;20192;-75
2022/10/16 00:03:45;;;;;;;1.20;0.80;;;17.20;99.90;;;;;;5030248;28;20355;-74
2022/10/16 00:06:11;;;;;;;0.77;0.63;;;17.10;99.90;;;;;;5035722;28;20200;-74
2022/10/16 00:08:38;;;;;;;0.77;0.60;;;17.10;99.90;;;;;;5034567;28;20185;-74
2022/10/16 00:11:08;;;;;;;0.90;0.77;;;17.10;99.90;;;;;;5035150;28;20186;-74
2022/10/16 00:13:35;;;;;;;0.80;0.70;;;17.10;99.90;;;;;;5026890;28;20185;-73
2022/10/16 00:16:02;;;;;;;0.82;0.60;;;17.10;99.90;;;;;;5031753;28;20188;-72
2022/10/16 00:18:30;;;;;;;0.95;0.63;;;17.10;99.90;;;;;;5031902;28;20232;-74
2022/10/16 00:21:00;;;;;;;1.45;0.82;;;17.10;99.90;;;;;;5035534;28;20573;-74
2022/10/16 00:23:26;;;;;;;0.95;0.80;;;17.10;99.90;;;;;;5026605;28;20358;-75
2022/10/16 00:26:01;;;;;;;3.50;0.70;;;17.10;99.90;;;;;;5033799;28;20289;-73
2022/10/16 00:28:32;;;;;;;1.40;0.73;;;17.10;99.90;;;;;;5034708;28;20184;-74
2022/10/16 00:30:58;;;;;;;1.30;0.70;;;17.10;99.90;;;;;;5017305;28;20167;-73
2022/10/16 00:33:24;;;;;;;0.95;0.73;;;17.00;99.90;;;;;;5029939;28;20177;-74
2022/10/16 00:35:50;;;;;;;1.35;0.80;;;17.00;99.90;;;;;;5033994;28;20246;-74
2022/10/16 00:38:16;;;;;;;1.15;0.70;;;17.00;99.90;;;;;;5033914;28;20225;-74
2022/10/16 00:40:42;;;;;;;1.48;0.65;;;17.00;99.90;;;;;;5019846;28;20264;-74
2022/10/16 00:43:39;;;;;;;0.90;0.70;;;17.00;99.90;;;;;;5034159;28;20264;-74
2022/10/16 00:46:10;;;;;;;0.60;0.60;;;17.00;99.90;;;;;;5029880;28;20213;-74
2022/10/16 00:48:39;;;;;;;1.33;0.70;;;17.00;99.90;;;;;;5034815;28;20182;-74
2022/10/16 00:51:06;;;;;;;2.50;0.70;;;17.00;99.90;;;;;;5034115;28;20245;-74
2022/10/16 00:53:34;;;;;;;1.08;0.70;;;17.00;99.90;;;;;;5029770;28;20222;-74
2022/10/16 00:56:01;;;;;;;1.60;0.70;;;16.90;99.90;;;;;;5028891;28;20183;-75
2022/10/16 00:58:31;;;;;;;2.05;0.75;;;16.90;99.90;;;;;;5031308;28;20187;-75
2022/10/16 01:00:57;;;;;;;2.10;0.90;;;16.80;99.90;;;;;;5034303;28;20178;-74
2022/10/16 01:03:32;;;;;;;0.73;0.70;;;16.80;99.90;;;;;;5034746;28;20253;-74
2022/10/16 01:06:23;;;;;;;1.38;0.70;;;16.80;99.90;;;;;;5035137;28;20203;-74
2022/10/16 01:08:58;;;;;;;0.90;0.80;;;16.70;99.90;;;;;;5034674;28;20171;-74
2022/10/16 01:11:41;;;;;;;1.65;0.90;;;16.70;99.90;;;;;;5033087;28;20268;-74
2022/10/16 01:14:33;;;;;;;0.65;0.65;;;16.60;99.90;;;;;;5016839;28;20163;-74
2022/10/16 01:17:12;;;;;;;1.85;1.00;;;16.60;99.90;;;;;;5026034;28;20166;-73
2022/10/16 01:20:01;;;;;;;1.40;0.90;;;16.60;99.90;;;;;;5020494;28;20182;-74
2022/10/16 01:22:38;;;;;;;1.02;0.73;;;16.60;99.90;;;;;;5034639;28;20174;-74
2022/10/16 01:25:08;;;;;;;1.10;0.82;;;16.50;99.90;;;;;;5030356;28;20213;-74
2022/10/16 01:27:39;;;;;;;2.13;1.00;;;16.50;99.90;;;;;;5034617;28;20205;-74
2022/10/16 01:30:24;;;;;;;1.33;0.82;;;16.50;99.90;;;;;;5033611;28;20236;-74
2022/10/16 01:32:56;;;;;;;1.08;0.73;;;16.40;99.90;;;;;;5034500;28;20193;-76
2022/10/16 01:35:41;;;;;;;2.65;0.90;;;16.40;99.90;;;;;;5025909;28;20171;-74
2022/10/16 01:38:09;;;;;;;1.70;0.88;;;16.40;99.90;;;;;;5029566;28;20201;-72
2022/10/16 01:40:41;;;;;;;1.20;1.05;;;16.30;99.90;;;;;;5027401;28;20199;-74
2022/10/16 01:43:18;;;;;;;1.00;0.90;;;16.30;99.90;;;;;;5033608;28;20201;-74
2022/10/16 01:45:45;;;;;;;1.10;0.90;;;16.30;99.90;;;;;;5033695;28;20170;-74
2022/10/16 01:48:14;;;;;;;2.72;0.90;;;16.20;99.90;;;;;;5033614;28;20178;-74
2022/10/16 01:50:43;;;;;;;1.10;0.77;;;16.20;99.90;;;;;;5016793;28;20490;-74
2022/10/16 01:53:13;;;;;;;0.80;0.70;;;16.20;99.90;;;;;;5023915;28;20203;-74
2022/10/16 01:55:44;;;;;;;1.63;0.70;;;16.10;99.90;;;;;;5034946;28;20189;-74
2022/10/16 01:58:12;;;;;;;1.10;0.90;;;16.10;99.90;;;;;;5036720;28;20170;-74
2022/10/16 02:00:42;;;;;;;1.40;0.70;;;16.10;99.90;;;;;;5036502;28;20260;-74
2022/10/16 02:03:13;;;;;;;0.88;0.70;;;16.00;99.90;;;;;;5038063;28;20199;-74
2022/10/16 02:05:41;;;;;;;0.90;0.80;;;16.10;99.90;;;;;;5037765;28;20193;-73
2022/10/16 02:08:09;;;;;;;1.67;0.90;;;16.00;99.90;;;;;;5037752;28;20264;-73
2022/10/16 02:10:36;;;;;;;1.38;0.70;;;16.00;99.90;;;;;;5036074;28;20178;-74
2022/10/16 02:13:25;;;;;;;0.60;0.60;;;16.10;99.90;;;;;;5025531;28;20217;-74
2022/10/16 02:15:53;;;;;;;1.08;0.60;;;16.10;99.90;;;;;;5036699;28;20213;-74
2022/10/16 02:18:28;;;;;;;0.98;0.70;;;16.10;99.90;;;;;;5036751;28;20184;-74
2022/10/16 02:21:03;;;;;;;0.90;0.70;;;16.20;99.90;;;;;;5025661;28;20197;-74
2022/10/16 02:23:54;;;;;;;0.70;0.60;;;16.20;99.90;;;;;;5019237;28;20185;-74
2022/10/16 02:26:39;;;;;;;1.40;0.50;;;16.30;99.90;;;;;;5035690;28;20252;-74
2022/10/16 02:29:11;;;;;;;1.33;0.68;;;16.30;99.90;;;;;;5034262;28;20170;-75
2022/10/16 02:31:44;;;;;;;1.10;0.70;;;16.40;99.90;;;;;;5031778;28;20193;-75
2022/10/16 02:34:12;;;;;;;0.90;0.80;;;16.40;99.90;;;;;;5033906;28;20166;-74
2022/10/16 02:36:39;;;;;;;0.93;0.70;;;16.40;99.90;;;;;;5033223;28;20174;-75
2022/10/16 02:39:08;;;;;;;1.00;0.70;;;16.40;99.90;;;;;;5036765;28;20190;-74
2022/10/16 02:41:34;;;;;;;1.88;1.10;;;16.50;99.90;;;;;;5036943;28;20182;-74
2022/10/16 02:43:59;;;;;;;2.15;1.00;;;16.50;99.90;;;;;;5033078;28;20178;-74
2022/10/16 02:46:25;;;;;;;1.30;0.90;;;16.50;99.90;;;;;;5027755;28;20197;-74
2022/10/16 02:48:51;;;;;;;1.75;0.70;;;16.60;99.90;;;;;;5030463;28;20174;-74
2022/10/16 02:51:18;;;;;;;1.15;0.75;;;16.60;99.90;;;;;;5037864;28;20252;-73
2022/10/16 02:53:46;;;;;;;1.38;0.60;;;16.60;99.90;;;;;;5043332;28;20221;-73
2022/10/16 02:56:12;;;;;;;1.23;0.68;;;16.70;99.90;;;;;;5033435;28;20269;-74
2022/10/16 02:58:38;;;;;;;1.50;0.57;;;16.70;99.90;;;;;;5035780;28;20244;-74
2022/10/16 03:01:03;;;;;;;0.63;0.60;;;16.70;99.90;;;;;;5037050;28;20186;-74
2022/10/16 03:03:29;;;;;;;0.68;0.50;;;16.70;99.90;;;;;;5036719;28;20201;-73
2022/10/16 03:05:59;;;;;;;1.00;0.57;;;16.80;99.90;;;;;;5036749;28;20197;-74
2022/10/16 03:08:25;;;;;;;0.70;0.60;;;16.80;99.90;;;;;;5031791;28;20166;-74
2022/10/16 03:10:53;;;;;;;0.60;0.50;;;16.80;99.90;;;;;;5025984;28;20181;-74
2022/10/16 03:13:20;;;;;;;1.10;0.50;;;16.80;99.90;;;;;;5034137;28;20174;-73
2022/10/16 03:15:48;;;;;;;1.20;0.50;;;16.80;99.90;;;;;;5036148;28;20189;-74
2022/10/16 03:18:14;;;;;;;0.85;0.50;;;16.80;99.90;;;;;;5023688;28;20170;-73
2022/10/16 03:20:39;;;;;;;0.82;0.50;;;16.80;99.90;;;;;;5036599;28;20177;-74
2022/10/16 03:23:06;;;;;;;0.85;0.50;;;16.80;99.90;;;;;;5036399;28;20173;-74
2022/10/16 03:25:32;;;;;;;0.43;0.43;;;16.80;99.90;;;;;;5035897;28;20181;-73
2022/10/16 03:27:57;;;;;;;0.90;0.60;;;16.80;99.90;;;;;;5036359;28;20206;-74
2022/10/16 03:30:23;;;;;;;1.38;0.65;;;16.80;99.90;;;;;;5036128;28;20189;-74
2022/10/16 03:32:53;;;;;;;0.90;0.68;;;16.80;99.90;;;;;;5033270;28;20189;-74
2022/10/16 03:35:25;;;;;;;0.50;0.50;;;16.80;99.90;;;;;;5026028;28;20233;-74
2022/10/16 03:37:52;;;;;;;0.70;0.52;;;16.80;99.90;;;;;;5035099;28;20174;-73
2022/10/16 03:40:17;;;;;;;1.23;0.60;;;16.80;99.90;;;;;;5035754;28;20209;-74
2022/10/16 03:42:43;;;;;;;1.15;0.70;;;16.80;99.90;;;;;;5034967;28;20204;-74
2022/10/16 03:45:10;;;;;;;0.55;0.47;;;16.80;99.90;;;;;;5018348;28;20221;-75
2022/10/16 03:47:36;;;;;;;1.73;0.60;;;16.80;99.90;;;;;;5031790;28;20206;-75
2022/10/16 03:50:05;;;;;;;1.20;0.57;;;16.80;99.90;;;;;;5030877;28;20216;-74
2022/10/16 03:52:31;;;;;;;1.30;0.70;;;16.70;99.90;;;;;;5035936;28;20182;-75
2022/10/16 03:54:57;;;;;;;0.75;0.70;;;16.70;99.90;;;;;;5033125;28;20265;-74
2022/10/16 03:57:23;;;;;;;0.88;0.70;;;16.70;99.90;;;;;;5032727;28;20273;-75
2022/10/16 03:59:48;;;;;;;1.58;0.75;;;16.70;99.90;;;;;;5034233;28;20703;-75
2022/10/16 04:02:16;;;;;;;1.67;0.80;;;16.70;99.90;;;;;;5032510;28;20201;-74
2022/10/16 04:04:44;;;;;;;1.45;0.80;;;16.70;99.90;;;;;;5027248;28;20210;-74
2022/10/16 04:07:10;;;;;;;1.10;0.80;;;16.70;99.90;;;;;;5030175;28;20197;-75
2022/10/16 04:09:35;;;;;;;0.75;0.75;;;16.70;99.90;;;;;;5034911;28;20169;-75
2022/10/16 04:12:01;;;;;;;1.75;0.90;;;16.70;99.90;;;;;;5030732;28;20174;-74
2022/10/16 04:14:29;;;;;;;0.80;0.63;;;16.70;99.90;;;;;;5022365;28;20175;-75
2022/10/16 04:16:55;;;;;;;2.35;0.80;;;16.70;99.90;;;;;;5034667;28;20177;-74
2022/10/16 04:19:20;;;;;;;1.50;0.98;;;16.70;99.90;;;;;;5034242;28;20204;-75
2022/10/16 04:21:48;;;;;;;1.27;0.80;;;16.70;99.90;;;;;;5035073;28;20182;-74
2022/10/16 04:24:14;;;;;;;1.15;0.88;;;16.70;99.90;;;;;;5035480;28;20189;-74
2022/10/16 04:26:42;;;;;;;0.85;0.73;;;16.70;99.90;;;;;;5034857;28;20198;-75
2022/10/16 04:29:08;;;;;;;1.90;0.90;;;16.70;99.90;;;;;;5033897;28;20190;-75
2022/10/16 04:31:33;;;;;;;1.13;0.88;;;16.70;99.90;;;;;;5034807;28;20178;-74
2022/10/16 04:33:59;;;;;;;0.93;0.70;;;16.70;99.90;;;;;;5034894;28;20201;-74
2022/10/16 04:36:25;;;;;;;0.90;0.80;;;16.60;99.90;;;;;;5035332;28;20174;-74
2022/10/16 04:38:52;;;;;;;2.20;0.70;;;16.70;99.90;;;;;;5034897;28;20178;-74
2022/10/16 04:41:18;;;;;;;1.38;0.73;;;16.70;99.90;;;;;;5034442;28;20193;-74
2022/10/16 04:43:44;;;;;;;0.95;0.77;;;16.70;99.90;;;;;;5025957;28;20175;-75
2022/10/16 04:46:10;;;;;;;2.38;0.80;;;16.60;99.90;;;;;;5034688;28;20228;-76
2022/10/16 04:48:35;;;;;;;1.67;0.90;;;16.70;99.90;;;;;;5034502;28;20195;-74
2022/10/16 04:51:03;;;;;;;1.83;0.85;;;16.60;99.90;;;;;;5035092;28;20257;-74
2022/10/16 04:53:29;;;;;;;0.70;0.60;;;16.60;99.90;;;;;;5040673;28;20273;-75
2022/10/16 04:55:55;;;;;;;0.90;0.85;;;16.60;99.90;;;;;;5034583;28;20198;-75
2022/10/16 04:58:21;;;;;;;1.10;0.90;;;16.60;99.90;;;;;;5034508;28;20201;-75
2022/10/16 05:00:49;;;;;;;0.70;0.70;;;16.60;99.90;;;;;;5031062;28;20240;-75
2022/10/16 05:03:14;;;;;;;1.88;0.80;;;16.60;99.90;;;;;;5031078;28;20201;-73
2022/10/16 05:05:48;;;;;;;1.08;0.70;;;16.60;99.90;;;;;;5027599;28;20182;-74
2022/10/16 05:08:16;;;;;;;1.75;0.75;;;16.60;99.90;;;;;;5015716;28;20151;-74
2022/10/16 05:10:43;;;;;;;1.23;0.82;;;16.60;99.90;;;;;;5014663;28;20186;-74
2022/10/16 05:13:10;;;;;;;1.48;0.70;;;16.60;99.90;;;;;;5032356;28;20173;-73
2022/10/16 05:15:36;;;;;;;1.77;1.30;;;16.60;99.90;;;;;;5034237;28;20177;-74
2022/10/16 05:18:01;;;;;;;3.20;2.53;;;16.60;99.90;;;;;;5030937;28;20238;-74
2022/10/16 05:20:27;;;;;;;4.50;2.00;;;16.50;99.90;;;;;;5034257;28;20288;-75
2022/10/16 05:22:53;;;;;;;5.72;1.60;;;16.50;99.90;;;;;;5033080;28;20188;-74
2022/10/16 05:25:19;;;;;;;1.20;1.02;;;16.50;99.90;;;;;;5033875;28;20178;-74
2022/10/16 05:27:49;;;;;;;1.65;1.30;;;16.50;99.90;;;;;;5034553;28;20202;-75
2022/10/16 05:30:18;;;;;;;6.80;5.03;;;16.50;99.90;;;;;;5034610;28;20272;-74
2022/10/16 05:32:50;;;;;;;2.20;2.00;;;16.50;99.90;;;;;;5040645;28;20255;-74
2022/10/16 05:35:17;;;;;;;2.05;1.80;;;16.50;99.90;;;;;;5035339;28;20170;-74
2022/10/16 05:37:48;;;;;;;1.63;1.13;;;16.50;99.90;;;;;;5043705;28;20195;-74
2022/10/16 05:40:14;;;;;;;1.20;1.00;;;16.50;99.90;;;;;;5042729;28;20197;-74
2022/10/16 05:42:40;;;;;;;1.58;1.13;;;16.50;99.90;;;;;;5032985;28;20178;-74
2022/10/16 05:45:08;;;;;;;2.45;1.90;;;16.50;99.90;;;;;;5032034;28;20173;-74
2022/10/16 05:47:36;;;;;;;1.73;1.30;;;16.50;99.90;;;;;;5040076;28;20355;-75
2022/10/16 05:50:03;;;;;;;1.67;1.27;;;16.50;99.90;;;;;;5040772;28;20182;-73
2022/10/16 05:52:34;;;;;;;2.00;1.30;;;16.50;99.90;;;;;;5036839;28;20194;-74
2022/10/16 05:54:59;;;;;;;1.55;1.00;;;16.50;99.90;;;;;;5039917;28;20176;-74
2022/10/16 05:57:27;;;;;;;0.93;0.88;;;16.50;99.90;;;;;;5035625;28;20183;-75
2022/10/16 05:59:53;;;;;;;1.00;0.90;;;16.50;99.90;;;;;;5039890;28;20205;-75
2022/10/16 06:02:21;;;;;;;0.77;0.77;;;16.50;99.90;;;;;;5039675;28;20269;-72
2022/10/16 06:04:51;;;;;;;2.05;0.95;;;16.50;99.90;;;;;;5040415;28;20232;-72
2022/10/16 06:07:16;;;;;;;2.10;1.40;;;16.50;99.90;;;;;;5047310;28;20296;-75
2022/10/16 06:09:44;;;;;;;1.75;1.23;;;16.60;99.90;;;;;;5047502;28;20193;-75
2022/10/16 06:12:10;;;;;;;1.88;0.95;;;16.60;99.90;;;;;;5039983;28;20197;-75
2022/10/16 06:14:35;;;;;;;1.38;0.90;;;16.60;99.90;;;;;;5040769;28;20170;-74
2022/10/16 06:17:01;;;;;;;1.20;0.77;;;16.60;99.90;;;;;;5040056;28;20264;-75
2022/10/16 06:19:26;;;;;;;1.65;0.88;;;16.60;99.90;;;;;;5037007;28;20178;-75
2022/10/16 06:21:54;;;;;;;0.82;0.82;;;16.60;99.90;;;;;;5020932;28;20182;-77
2022/10/16 06:24:20;;;;;;;0.80;0.80;;;16.60;99.90;;;;;;5035697;28;20258;-74
2022/10/16 06:26:50;;;;;;;1.10;0.80;;;16.60;99.90;;;;;;5032535;28;20205;-74
2022/10/16 06:29:16;;;;;;;1.17;0.80;;;16.60;99.90;;;;;;5022884;28;20200;-74
2022/10/16 06:31:44;;;;;;;1.10;1.00;;;16.60;99.90;;;;;;5028723;28;20178;-75
2022/10/16 06:34:11;;;;;;;2.05;1.30;;;16.60;99.90;;;;;;5035148;28;20194;-75
2022/10/16 06:36:40;;;;;;;1.73;1.00;;;16.60;99.90;;;;;;5039680;28;20209;-74
2022/10/16 06:39:08;;;;;;;1.63;1.00;;;16.60;99.90;;;;;;5037520;28;20193;-75
2022/10/16 06:41:34;;;;;;;1.73;1.00;;;16.60;99.90;;;;;;5037313;28;20198;-74
2022/10/16 06:44:00;;;;;;;1.83;1.10;;;16.50;99.90;;;;;;5039995;28;20189;-74
2022/10/16 06:46:29;;;;;;;6.38;4.63;;;16.50;99.90;;;;;;5038748;28;20289;-72
2022/10/16 06:48:54;;;;;;;9.15;7.07;;;16.50;99.90;;;;;;5034092;28;20171;-72
2022/10/16 06:51:27;;;;;;;4.93;3.35;;;16.50;99.90;;;;;;5037925;28;20204;-72
2022/10/16 06:53:56;;;;;;;2.90;2.53;;;16.50;99.90;;;;;;5039016;28;20162;-72
2022/10/16 06:56:30;;;;;;;2.38;1.90;;;16.50;99.90;;;;;;5037123;28;20194;-72
2022/10/16 06:58:59;;;;;;;1.60;1.50;;;16.50;99.90;;;;;;5038404;28;20190;-72
2022/10/16 07:01:26;;;;;;;1.67;1.20;;;16.50;99.90;;;;;;5038336;28;20178;-72
2022/10/16 07:03:52;;;;;;;1.30;1.20;;;16.50;99.90;;;;;;5039061;28;20296;-74
2022/10/16 07:06:19;;;;;;;1.92;1.13;;;16.60;99.90;;;;;;5038281;28;20201;-74
2022/10/16 07:08:46;;;;;;;2.30;1.02;;;16.60;99.90;;;;;;5034765;28;20179;-74
2022/10/16 07:11:15;;;;;;;4.60;1.30;;;16.60;99.90;;;;;;5035055;28;20187;-72
2022/10/16 07:13:43;;;;;;;2.30;1.50;;;16.60;99.90;;;;;;5021877;28;20171;-73
2022/10/16 07:16:12;;;;;;;3.38;2.72;;;16.60;99.90;;;;;;5036281;28;20202;-73
2022/10/16 07:18:42;;;;;;;3.72;1.60;;;16.60;99.90;;;;;;5037037;28;20174;-73
2022/10/16 07:21:08;;;;;;;2.50;1.52;;;16.60;99.90;;;;;;5037103;28;20184;-73
2022/10/16 07:23:37;;;;;;;1.83;1.23;;;16.70;99.90;;;;;;5020383;28;20266;-74
2022/10/16 07:26:03;;;;;;;1.60;1.35;;;16.70;99.90;;;;;;5026921;28;20174;-73
2022/10/16 07:28:29;;;;;;;2.13;1.13;;;16.70;99.90;;;;;;5036652;28;20180;-73
2022/10/16 07:30:55;;;;;;;1.38;1.17;;;16.80;99.90;;;;;;5017942;28;20195;-74
2022/10/16 07:33:21;;;;;;;1.75;1.10;;;16.80;99.90;;;;;;5021788;28;20182;-73
2022/10/16 07:35:51;;;;;;;1.50;1.10;;;16.80;99.90;;;;;;5017562;28;20170;-72
2022/10/16 07:38:19;;;;;;;4.10;1.10;;;16.80;99.90;;;;;;5019193;28;20170;-73
2022/10/16 07:40:45;;;;;;;2.20;2.00;;;16.90;99.90;;;;;;5032186;28;20185;-74
2022/10/16 07:43:14;;;;;;;2.85;2.53;;;16.90;99.90;;;;;;5034767;28;20197;-74
2022/10/16 07:45:49;;;;;;;1.90;1.55;;;16.90;99.90;;;;;;5018091;28;20171;-73
2022/10/16 07:48:19;;;;;;;2.05;1.35;;;17.00;99.90;;;;;;5016509;28;20197;-74
2022/10/16 07:50:47;;;;;;;1.88;1.27;;;17.00;99.90;;;;;;5028655;28;20166;-74
2022/10/16 07:53:14;;;;;;;1.38;1.20;;;17.00;99.90;;;;;;5025907;28;20182;-74
2022/10/16 07:55:39;;;;;;;1.33;1.10;;;17.10;99.90;;;;;;5035865;28;20198;-73
2022/10/16 07:58:06;;;;;;;2.35;1.00;;;17.10;99.90;;;;;;5036363;28;20170;-74
2022/10/16 08:00:32;;;;;;;1.08;0.90;;;17.10;99.90;;;;;;5037722;28;20174;-73
2022/10/16 08:03:03;;;;;;;1.45;0.90;;;17.10;99.90;;;;;;5032505;28;20198;-73
2022/10/16 08:05:31;;;;;;;1.27;0.85;;;17.10;99.90;;;;;;5037687;28;20169;-74
2022/10/16 08:07:57;;;;;;;2.97;1.80;;;17.10;99.90;;;;;;5037089;28;20198;-73
2022/10/16 08:10:25;;;;;;;1.42;1.30;;;17.20;99.90;;;;;;5036602;28;20178;-74
2022/10/16 08:12:53;;;;;;;4.43;2.97;;;17.20;99.90;;;;;;5026009;28;20183;-73
2022/10/16 08:15:22;;;;;;;2.75;2.30;;;17.20;99.90;;;;;;5016226;28;20182;-74
2022/10/16 08:17:56;;;;;;;1.75;1.60;;;17.20;99.90;;;;;;5018804;28;20179;-74
2022/10/16 08:20:21;;;;;;;1.98;1.23;;;17.20;99.90;;;;;;5017105;28;20193;-74
2022/10/16 08:22:47;;;;;;;1.63;1.30;;;17.20;99.90;;;;;;5017060;28;20202;-73
2022/10/16 08:25:12;;;;;;;1.13;1.00;;;17.20;99.90;;;;;;5049599;28;20184;-74
2022/10/16 08:27:38;;;;;;;1.20;0.88;;;17.20;99.90;;;;;;5039395;28;20206;-74
2022/10/16 08:30:07;;;;;;;1.30;0.80;;;17.20;99.90;;;;;;5027270;28;20281;-74
2022/10/16 08:32:32;;;;;;;5.05;0.98;;;17.20;99.90;;;;;;5019138;28;20194;-74
2022/10/16 08:34:58;;;;;;;2.92;1.05;;;17.30;99.90;;;;;;5031086;28;20210;-74
2022/10/16 08:37:30;;;;;;;1.20;0.90;;;17.30;99.90;;;;;;5023724;28;20175;-74
2022/10/16 08:39:56;;;;;;;0.93;0.80;;;17.40;99.90;;;;;;5033278;28;20264;-73
2022/10/16 08:42:47;;;;;;;1.02;0.90;;;17.40;99.90;;;;;;5027965;28;20236;-73
2022/10/16 08:45:35;;;;;;;1.55;0.90;;;17.50;99.90;;;;;;5034587;28;20194;-73
2022/10/16 08:48:23;;;;;;;1.10;1.00;;;17.60;99.90;;;;;;5034922;28;20202;-74
2022/10/16 08:50:51;;;;;;;1.40;1.00;;;17.60;99.90;;;;;;5036581;28;20178;-74
2022/10/16 08:53:29;;;;;;;3.92;1.20;;;17.70;99.90;;;;;;5036874;28;20189;-73
2022/10/16 08:55:58;;;;;;;2.38;0.98;;;17.70;99.90;;;;;;5023665;28;20190;-73
2022/10/16 08:58:29;;;;;;;1.38;0.85;;;17.80;99.90;;;;;;5037193;28;20174;-74
2022/10/16 09:01:12;;;;;;;1.05;0.90;;;17.80;99.90;;;;;;5035796;28;20193;-73
2022/10/16 09:03:46;;;;;;;1.42;0.90;;;17.90;99.90;;;;;;5036335;28;20185;-74
2022/10/16 09:06:26;;;;;;;1.85;0.80;;;17.90;99.90;;;;;;5035171;28;20201;-73
2022/10/16 09:09:16;;;;;;;3.08;0.90;;;18.00;99.90;;;;;;5034468;28;20170;-73
2022/10/16 09:11:53;;;;;;;0.80;0.63;;;18.00;99.90;;;;;;5035478;28;20162;-73
2022/10/16 09:14:27;;;;;;;1.02;0.77;;;18.10;99.90;;;;;;5032198;28;20207;-73
2022/10/16 09:17:06;;;;;;;0.98;0.50;;;18.20;99.90;;;;;;5035766;28;20208;-74
2022/10/16 09:19:40;;;;;;;1.17;0.60;;;18.40;99.90;;;;;;5029243;28;20257;-74
2022/10/16 09:22:15;;;;;;;0.57;0.50;;;18.60;99.90;;;;;;5015358;28;20166;-73
2022/10/16 09:24:41;;;;;;;0.90;0.70;;;19.10;99.90;;;;;;5030914;28;20170;-74
2022/10/16 09:27:12;;;;;;;1.10;0.70;;;19.70;99.90;;;;;;5035405;28;20197;-72
2022/10/16 09:29:38;;;;;;;0.45;0.40;;;20.50;99.90;;;;;;5038374;28;20229;-74
2022/10/16 09:32:17;;;;;;;0.57;0.43;;;21.30;99.90;;;;;;5035343;28;20213;-72
2022/10/16 09:34:48;;;;;;;0.77;0.40;;;22.00;99.90;;;;;;5025519;28;20289;-73
2022/10/16 09:37:21;;;;;;;0.60;0.47;;;22.60;99.90;;;;;;5017630;28;20174;-73
2022/10/16 09:39:52;;;;;;;0.80;0.57;;;23.00;99.90;;;;;;5034700;28;20177;-74
2022/10/16 09:42:21;;;;;;;0.55;0.30;;;23.50;99.90;;;;;;5033110;28;20221;-73
2022/10/16 09:44:50;;;;;;;1.08;0.40;;;23.90;99.90;;;;;;5019850;28;20216;-72
2022/10/16 09:47:23;;;;;;;0.47;0.30;;;24.10;99.90;;;;;;5039059;28;20217;-73
2022/10/16 09:49:59;;;;;;;2.13;0.40;;;24.30;99.90;;;;;;5015788;28;20217;-73
2022/10/16 09:52:25;;;;;;;0.68;0.30;;;24.50;99.90;;;;;;5033759;28;20177;-72
2022/10/16 09:55:15;;;;;;;0.82;0.30;;;24.70;99.90;;;;;;5034207;28;20179;-73
2022/10/16 09:57:51;;;;;;;0.70;0.40;;;24.90;99.90;;;;;;5020732;28;20182;-73
2022/10/16 10:00:20;;;;;;;0.88;0.30;;;24.90;99.90;;;;;;5015493;28;20224;-73
2022/10/16 10:02:46;;;;;;;2.75;0.40;;;24.80;99.90;;;;;;5033104;28;20256;-74
2022/10/16 10:05:29;;;;;;;0.57;0.28;;;24.70;99.90;;;;;;5037693;28;20498;-74
2022/10/16 10:08:00;;;;;;;0.90;0.20;;;24.70;99.90;;;;;;5039043;28;20292;-72
2022/10/16 10:10:32;;;;;;;1.27;0.40;;;24.60;99.90;;;;;;5038632;28;20178;-74
2022/10/16 10:12:58;;;;;;;0.70;0.35;;;24.50;99.90;;;;;;5034250;28;20179;-73
2022/10/16 10:15:26;;;;;;;0.55;0.30;;;24.40;99.90;;;;;;5038710;28;20170;-73
2022/10/16 10:17:57;;;;;;;0.40;0.30;;;24.40;99.90;;;;;;5037133;28;20178;-74
2022/10/16 10:20:34;;;;;;;1.13;0.32;;;24.30;99.90;;;;;;5025093;28;20241;-74
2022/10/16 10:23:18;;;;;;;0.77;0.40;;;24.20;99.90;;;;;;5040543;28;20248;-74
2022/10/16 10:25:47;;;;;;;0.85;0.40;;;24.10;99.90;;;;;;5041322;28;20235;-74
2022/10/16 10:28:22;;;;;;;0.43;0.30;;;24.10;99.90;;;;;;5039357;28;20222;-74
2022/10/16 10:30:55;;;;;;;0.47;0.30;;;24.10;99.90;;;;;;5040863;28;20185;-74
2022/10/16 10:33:41;;;;;;;1.65;0.43;;;24.10;99.90;;;;;;5037933;28;20193;-74
2022/10/16 10:36:24;;;;;;;0.50;0.32;;;24.20;99.90;;;;;;5027396;28;20178;-75
2022/10/16 10:39:10;;;;;;;0.80;0.40;;;24.40;99.90;;;;;;5032793;28;20208;-73
2022/10/16 10:42:01;;;;;;;1.88;0.70;;;24.40;99.90;;;;;;5035059;28;20202;-74
2022/10/16 10:44:30;;;;;;;0.70;0.60;;;24.40;99.90;;;;;;5039935;28;20233;-74
2022/10/16 10:47:21;;;;;;;1.05;0.40;;;24.40;99.90;;;;;;5039826;28;20212;-74
2022/10/16 10:49:55;;;;;;;0.30;0.20;;;24.30;99.90;;;;;;5039351;28;20228;-74
2022/10/16 10:52:34;;;;;;;0.32;0.20;;;24.30;99.90;;;;;;5037820;28;20188;-74
2022/10/16 10:55:16;;;;;;;0.20;0.15;;;24.30;99.90;;;;;;5037307;28;20579;-76
2022/10/16 10:58:07;;;;;;;0.73;0.30;;;24.30;99.90;;;;;;5037806;28;20162;-74
2022/10/16 11:00:54;;;;;;;1.00;0.40;;;24.30;99.90;;;;;;5035095;28;20170;-75
2022/10/16 11:03:40;;;;;;;0.73;0.20;;;24.30;99.90;;;;;;5019585;28;20194;-73
2022/10/16 11:06:24;;;;;;;1.27;0.50;;;24.30;99.90;;;;;;5012021;28;20257;-74
2022/10/16 11:09:12;;;;;;;0.80;0.40;;;24.40;99.90;;;;;;5023221;28;20225;-73
2022/10/16 11:11:39;;;;;;;0.60;0.32;;;24.50;99.90;;;;;;5021201;28;20210;-74
2022/10/16 11:14:14;;;;;;;0.35;0.30;;;24.60;99.90;;;;;;5020154;28;20171;-74
2022/10/16 11:16:46;;;;;;;0.52;0.28;;;24.70;99.90;;;;;;5036537;28;20216;-74
2022/10/16 11:19:31;;;;;;;0.55;0.32;;;24.70;99.90;;;;;;5019780;28;20198;-75
2022/10/16 11:22:15;;;;;;;0.50;0.20;;;24.80;99.90;;;;;;5027902;28;20194;-74
2022/10/16 11:24:54;;;;;;;0.47;0.30;;;24.80;99.90;;;;;;5034501;28;20188;-74
2022/10/16 11:27:37;;;;;;;0.70;0.30;;;24.80;99.90;;;;;;5034503;28;20203;-74
2022/10/16 11:30:18;;;;;;;0.45;0.32;;;24.80;99.90;;;;;;5031740;28;20178;-74
2022/10/16 11:33:02;;;;;;;1.25;0.20;;;24.70;99.90;;;;;;5026191;28;20158;-74
2022/10/16 11:35:39;;;;;;;0.50;0.38;;;24.70;99.90;;;;;;5023635;28;20186;-73
2022/10/16 11:38:16;;;;;;;0.47;0.40;;;24.70;99.90;;;;;;5025573;28;20204;-74
2022/10/16 11:40:47;;;;;;;1.83;0.47;;;24.70;99.90;;;;;;5018044;28;20511;-72
2022/10/16 11:43:24;;;;;;;1.10;0.35;;;24.90;99.90;;;;;;5021960;28;20181;-75
2022/10/16 11:45:54;;;;;;;0.73;0.38;;;25.00;99.90;;;;;;5025155;28;20185;-74
2022/10/16 11:48:32;;;;;;;0.45;0.35;;;25.10;99.90;;;;;;5037481;28;20202;-74
2022/10/16 11:51:23;;;;;;;0.20;0.20;;;25.30;99.90;;;;;;5025870;28;20279;-74
2022/10/16 11:54:26;;;;;;;1.08;0.40;;;25.50;99.90;;;;;;5021839;28;20175;-73
2022/10/16 11:56:58;;;;;;;0.40;0.30;;;25.60;99.90;;;;;;5021233;28;20174;-74
2022/10/16 11:59:46;;;;;;;0.13;0.10;;;25.50;99.90;;;;;;5030130;28;20258;-74
2022/10/16 12:02:23;;;;;;;0.95;0.45;;;25.40;99.90;;;;;;5017362;28;20214;-75
2022/10/16 12:04:59;;;;;;;0.30;0.28;;;25.10;99.90;;;;;;5035225;28;20544;-74
2022/10/16 12:07:32;;;;;;;0.68;0.30;;;24.80;99.90;;;;;;5028748;28;20224;-74
2022/10/16 12:10:00;;;;;;;1.77;0.30;;;24.50;99.90;;;;;;5018103;28;20186;-74
2022/10/16 12:12:35;;;;;;;0.30;0.20;;;24.30;99.90;;;;;;5039377;28;20194;-74
2022/10/16 12:15:28;;;;;;;1.02;0.40;;;24.10;99.90;;;;;;5039594;28;20192;-73
2022/10/16 12:17:56;;;;;;;0.77;0.30;;;23.90;99.90;;;;;;5038752;28;20178;-74
2022/10/16 12:20:36;;;;;;;0.22;0.22;;;23.70;99.90;;;;;;5037007;28;20201;-73
2022/10/16 12:23:05;;;;;;;0.75;0.40;;;23.60;99.90;;;;;;5019918;28;20198;-74
2022/10/16 12:25:46;;;;;;;0.35;0.20;;;23.50;99.90;;;;;;5037976;28;20237;-74
2022/10/16 12:28:15;;;;;;;0.43;0.20;;;23.60;99.90;;;;;;5039035;28;20278;-74
2022/10/16 12:30:42;;;;;;;0.60;0.22;;;23.60;99.90;;;;;;5039686;28;20170;-74
2022/10/16 12:33:29;;;;;;;0.35;0.30;;;23.50;99.90;;;;;;5036754;28;20170;-74
2022/10/16 12:35:57;;;;;;;0.20;0.20;;;23.50;99.90;;;;;;5036181;28;20173;-74
2022/10/16 12:38:46;;;;;;;0.90;0.40;;;23.40;99.90;;;;;;5037101;28;20182;-74
2022/10/16 12:41:14;;;;;;;1.00;0.30;;;23.40;99.90;;;;;;5021254;28;20210;-73
2022/10/16 12:43:45;;;;;;;0.40;0.20;;;23.30;99.90;;;;;;5029819;28;20206;-73
2022/10/16 12:46:10;;;;;;;0.38;0.30;;;23.20;99.90;;;;;;5022640;28;20166;-75
2022/10/16 12:48:44;;;;;;;0.68;0.30;;;23.10;99.90;;;;;;5032583;28;20220;-73
2022/10/16 12:51:27;;;;;;;0.30;0.30;;;23.10;99.90;;;;;;5037854;28;20189;-74
2022/10/16 12:54:02;;;;;;;0.40;0.40;;;23.00;99.90;;;;;;5035408;28;20220;-74
2022/10/16 12:56:39;;;;;;;0.77;0.40;;;23.00;99.90;;;;;;5029111;28;20343;-75
2022/10/16 12:59:13;;;;;;;0.98;0.50;;;23.10;99.90;;;;;;5035796;28;20182;-74
2022/10/16 13:02:27;;;;;;;0.82;0.45;;;23.30;99.90;;;;;;5034079;28;20272;-75
2022/10/16 13:05:27;;;;;;;0.93;0.30;;;23.60;99.90;;;;;;5017310;28;20205;-74
2022/10/16 13:08:13;;;;;;;0.50;0.40;;;23.80;99.90;;;;;;5018729;28;20202;-73
2022/10/16 13:11:07;;;;;;;0.40;0.30;;;24.00;99.90;;;;;;5025700;28;20170;-74